Time;durP1;ratioP1;P1;durP2;ratioP2;P2;SDS_P1;SDS_P2;PMS_P1;PMS_P2;Temp;Humidity;BMP_temperature;BMP_pressure;BME280_temperature;BME280_humidity;BME280_pressure;Samples;Min_cycle;Max_cycle;Signal;HPM_P1;HPM_P2
2021/01/09 00:00:43;;;;;;;16.50;10.27;;;-2.30;99.90;;;;;;5011970;28;20193;-78
2021/01/09 00:03:09;;;;;;;12.40;9.33;;;-2.20;99.90;;;;;;4998294;28;20189;-78
2021/01/09 00:05:35;;;;;;;11.87;9.53;;;-2.20;99.90;;;;;;5016087;28;20197;-78
2021/01/09 00:08:01;;;;;;;12.07;8.53;;;-2.20;99.90;;;;;;5006650;28;20711;-78
2021/01/09 00:10:29;;;;;;;12.07;10.07;;;-2.20;99.90;;;;;;5022064;28;20238;-78
2021/01/09 00:12:55;;;;;;;12.57;9.93;;;-2.20;99.90;;;;;;5015699;28;20259;-78
2021/01/09 00:15:22;;;;;;;10.57;8.67;;;-2.30;99.90;;;;;;5015814;28;20711;-78
2021/01/09 00:17:47;;;;;;;12.77;9.67;;;-2.30;99.90;;;;;;5017907;28;20185;-78
2021/01/09 00:20:14;;;;;;;15.07;9.83;;;-2.40;99.90;;;;;;5018142;28;20200;-77
2021/01/09 00:22:41;;;;;;;10.53;8.67;;;-2.50;99.90;;;;;;4998884;28;20674;-77
2021/01/09 00:25:11;;;;;;;13.47;9.63;;;-2.60;99.90;;;;;;5015927;28;20184;-78
2021/01/09 00:27:37;;;;;;;12.33;10.10;;;-2.70;99.90;;;;;;5014913;28;20650;-77
2021/01/09 00:30:05;;;;;;;16.33;9.87;;;-2.70;99.90;;;;;;5014477;28;20204;-78
2021/01/09 00:32:30;;;;;;;12.33;9.07;;;-2.80;99.90;;;;;;5014804;28;20211;-77
2021/01/09 00:34:56;;;;;;;11.13;9.07;;;-2.90;99.90;;;;;;5014588;28;20658;-78
2021/01/09 00:37:28;;;;;;;11.63;9.30;;;-2.90;99.90;;;;;;5015012;28;20183;-78
2021/01/09 00:39:54;;;;;;;10.10;8.87;;;-2.90;99.90;;;;;;5014931;28;20203;-77
2021/01/09 00:42:20;;;;;;;14.03;9.93;;;-2.90;99.90;;;;;;5014497;28;20177;-77
2021/01/09 00:44:46;;;;;;;12.37;9.23;;;-3.10;99.90;;;;;;5014515;28;20180;-78
2021/01/09 00:47:13;;;;;;;12.37;9.53;;;-3.20;99.90;;;;;;5014464;28;20210;-77
2021/01/09 00:49:38;;;;;;;12.67;9.30;;;-3.20;99.90;;;;;;5014377;28;20238;-77
2021/01/09 00:52:04;;;;;;;12.83;9.90;;;-3.20;99.90;;;;;;5016802;28;20662;-77
2021/01/09 00:54:31;;;;;;;14.50;9.70;;;-3.30;99.90;;;;;;5014207;28;20523;-77
2021/01/09 00:56:57;;;;;;;11.07;8.90;;;-3.30;99.90;;;;;;5014065;28;20194;-77
2021/01/09 00:59:24;;;;;;;11.93;9.20;;;-3.30;99.90;;;;;;5005517;28;20204;-77
2021/01/09 01:01:51;;;;;;;12.30;8.97;;;-3.30;99.90;;;;;;4996549;28;20262;-77
2021/01/09 01:04:16;;;;;;;13.10;8.67;;;-3.30;99.90;;;;;;5013586;28;20191;-77
2021/01/09 01:06:43;;;;;;;12.77;9.23;;;-3.40;99.90;;;;;;5013896;28;20186;-77
2021/01/09 01:09:10;;;;;;;12.70;9.40;;;-3.40;99.90;;;;;;5013400;28;20724;-77
2021/01/09 01:11:36;;;;;;;12.97;9.10;;;-3.50;99.90;;;;;;5013616;28;20650;-77
2021/01/09 01:14:02;;;;;;;15.53;9.90;;;-3.50;99.90;;;;;;4996147;28;20310;-77
2021/01/09 01:16:28;;;;;;;11.00;8.77;;;-3.60;99.90;;;;;;5013647;28;20190;-77
2021/01/09 01:18:55;;;;;;;11.33;9.47;;;-3.60;99.90;;;;;;4995866;28;20203;-77
2021/01/09 01:21:21;;;;;;;11.17;8.90;;;-3.70;99.90;;;;;;5013623;28;20692;-77
2021/01/09 01:23:50;;;;;;;14.13;9.20;;;-3.80;99.90;;;;;;5013146;28;20184;-77
2021/01/09 01:26:15;;;;;;;12.33;9.27;;;-3.80;99.90;;;;;;5013196;28;20658;-77
2021/01/09 01:28:42;;;;;;;10.83;8.70;;;-3.70;99.90;;;;;;5013243;28;20257;-77
2021/01/09 01:31:08;;;;;;;11.77;8.80;;;-3.70;99.90;;;;;;5013238;28;20175;-77
2021/01/09 01:33:34;;;;;;;13.33;9.40;;;-3.60;99.90;;;;;;4995422;28;20253;-77
2021/01/09 01:35:59;;;;;;;17.20;10.17;;;-3.70;99.90;;;;;;4995565;28;20648;-77
2021/01/09 01:38:25;;;;;;;12.73;9.57;;;-3.70;99.90;;;;;;5012975;28;20203;-77
2021/01/09 01:40:51;;;;;;;13.93;9.77;;;-3.80;99.90;;;;;;5013108;28;20729;-77
2021/01/09 01:43:17;;;;;;;12.07;9.03;;;-3.80;99.90;;;;;;5013290;28;20533;-77
2021/01/09 01:45:43;;;;;;;11.83;9.07;;;-3.80;99.90;;;;;;5013080;28;20175;-77
2021/01/09 01:48:11;;;;;;;14.40;8.97;;;-3.80;99.90;;;;;;5012827;28;20610;-77
2021/01/09 01:50:49;;;;;;;10.67;8.43;;;-3.80;99.90;;;;;;5013142;28;20233;-77
2021/01/09 01:53:15;;;;;;;10.87;9.03;;;-3.70;99.90;;;;;;4979571;28;20183;-77
2021/01/09 01:55:40;;;;;;;10.53;8.03;;;-3.70;99.90;;;;;;4995236;28;20589;-77
2021/01/09 01:58:06;;;;;;;14.80;9.60;;;-3.60;99.90;;;;;;5018911;28;20198;-77
2021/01/09 02:00:31;;;;;;;11.07;8.70;;;-3.50;99.90;;;;;;5013030;28;20269;-77
2021/01/09 02:02:57;;;;;;;10.33;8.50;;;-3.50;99.90;;;;;;4995759;28;20181;-77
2021/01/09 02:05:32;;;;;;;11.77;9.17;;;-3.40;99.90;;;;;;5013008;28;20259;-77
2021/01/09 02:08:00;;;;;;;13.87;10.27;;;-3.40;99.90;;;;;;5013850;28;20623;-77
2021/01/09 02:10:26;;;;;;;12.20;9.50;;;-3.40;99.90;;;;;;5016424;28;20564;-77
2021/01/09 02:13:19;;;;;;;12.77;8.87;;;-3.50;99.90;;;;;;5016164;28;20194;-77
2021/01/09 02:15:46;;;;;;;12.27;8.83;;;-3.60;99.90;;;;;;5016642;28;20167;-77
2021/01/09 02:18:13;;;;;;;11.13;8.77;;;-3.70;99.90;;;;;;5016084;28;20183;-77
2021/01/09 02:20:41;;;;;;;13.37;9.13;;;-3.80;99.90;;;;;;5016535;28;20171;-77
2021/01/09 02:23:06;;;;;;;10.50;8.10;;;-3.80;99.90;;;;;;5016102;28;20185;-77
2021/01/09 02:25:33;;;;;;;42.63;20.60;;;-3.90;99.90;;;;;;5016347;28;20527;-77
2021/01/09 02:27:58;;;;;;;35.43;18.13;;;-4.00;99.90;;;;;;5015975;28;20249;-77
2021/01/09 02:30:27;;;;;;;12.00;8.97;;;-4.10;99.90;;;;;;5015994;28;20214;-77
2021/01/09 02:33:01;;;;;;;12.27;8.67;;;-4.10;99.90;;;;;;5015799;28;20183;-77
2021/01/09 02:35:30;;;;;;;15.17;9.90;;;-4.10;99.90;;;;;;5015870;28;20178;-77
2021/01/09 02:37:56;;;;;;;12.60;8.80;;;-4.00;99.90;;;;;;5016015;28;20230;-77
2021/01/09 02:40:22;;;;;;;11.10;8.20;;;-3.90;99.90;;;;;;5016164;28;20207;-77
2021/01/09 02:42:48;;;;;;;10.30;9.07;;;-3.80;99.90;;;;;;5015904;28;20208;-77
2021/01/09 02:45:14;;;;;;;14.93;8.87;;;-3.80;99.90;;;;;;5015871;28;20251;-77
2021/01/09 02:47:41;;;;;;;13.03;9.43;;;-3.90;99.90;;;;;;5015865;28;20179;-77
2021/01/09 02:50:11;;;;;;;16.00;9.33;;;-4.00;99.90;;;;;;5010666;28;20203;-77
2021/01/09 02:52:40;;;;;;;11.93;8.80;;;-4.00;99.90;;;;;;4991508;28;20175;-77
2021/01/09 02:55:08;;;;;;;11.77;8.93;;;-3.90;99.90;;;;;;5004152;28;20183;-77
2021/01/09 02:57:34;;;;;;;11.70;9.03;;;-3.80;99.90;;;;;;5014743;28;20175;-77
2021/01/09 03:00:00;;;;;;;12.03;8.77;;;-3.80;99.90;;;;;;5007274;28;20222;-77
2021/01/09 03:02:27;;;;;;;13.03;9.10;;;-3.70;99.90;;;;;;5016001;28;20175;-77
2021/01/09 03:04:52;;;;;;;12.67;9.03;;;-3.80;99.90;;;;;;5014898;28;20205;-77
2021/01/09 03:07:18;;;;;;;12.43;9.27;;;-3.70;99.90;;;;;;5015613;28;20186;-77
2021/01/09 03:09:44;;;;;;;10.03;8.37;;;-3.70;99.90;;;;;;5016292;28;20266;-77
2021/01/09 03:12:10;;;;;;;10.83;8.33;;;-3.80;99.90;;;;;;5002063;28;20175;-77
2021/01/09 03:14:36;;;;;;;11.27;8.20;;;-3.90;99.90;;;;;;4998093;28;20187;-77
2021/01/09 03:17:02;;;;;;;12.63;8.30;;;-3.90;99.90;;;;;;5015139;28;20602;-77
2021/01/09 03:19:28;;;;;;;10.03;8.13;;;-3.80;99.90;;;;;;5015188;28;20278;-77
2021/01/09 03:21:54;;;;;;;15.70;8.43;;;-3.80;99.90;;;;;;4997539;28;20617;-77
2021/01/09 03:24:20;;;;;;;10.07;8.80;;;-3.80;99.90;;;;;;5015002;28;20182;-77
2021/01/09 03:26:46;;;;;;;15.47;9.40;;;-3.70;99.90;;;;;;5015043;28;20186;-78
2021/01/09 03:29:12;;;;;;;11.53;8.23;;;-3.70;99.90;;;;;;5014707;28;20233;-77
2021/01/09 03:31:38;;;;;;;11.87;8.70;;;-3.60;99.90;;;;;;5015075;28;20176;-77
2021/01/09 03:34:03;;;;;;;11.80;8.73;;;-3.60;99.90;;;;;;5014886;28;20227;-77
2021/01/09 03:36:29;;;;;;;10.50;8.40;;;-3.50;99.90;;;;;;5015181;28;20562;-77
2021/01/09 03:38:55;;;;;;;10.90;8.50;;;-3.60;99.90;;;;;;5014639;28;20197;-77
2021/01/09 03:43:55;;;;;;;10.83;8.53;;;-4.00;99.90;;;;;;5034514;22;20231;-75
2021/01/09 03:46:21;;;;;;;9.53;8.53;;;-4.10;99.90;;;;;;5015227;28;20256;-75
2021/01/09 03:48:48;;;;;;;9.60;8.13;;;-4.20;99.90;;;;;;5013852;28;20211;-75
2021/01/09 03:51:13;;;;;;;12.83;8.77;;;-4.30;99.90;;;;;;5013480;28;20248;-75
2021/01/09 03:53:39;;;;;;;12.00;9.00;;;-4.40;99.90;;;;;;5013390;28;20222;-75
2021/01/09 03:56:04;;;;;;;9.53;8.17;;;-4.40;99.90;;;;;;5014659;28;20178;-75
2021/01/09 03:58:30;;;;;;;11.27;8.70;;;-4.40;99.90;;;;;;5009656;28;20207;-75
2021/01/09 04:00:56;;;;;;;11.37;8.50;;;-4.50;99.90;;;;;;5013516;28;20664;-75
2021/01/09 04:03:21;;;;;;;9.80;8.20;;;-4.40;99.90;;;;;;5013359;28;20253;-75
2021/01/09 04:05:47;;;;;;;16.17;9.17;;;-4.40;99.90;;;;;;5014530;28;20183;-75
2021/01/09 04:08:13;;;;;;;12.70;8.37;;;-4.40;99.90;;;;;;5014983;28;20684;-75
2021/01/09 04:10:39;;;;;;;12.63;8.23;;;-4.50;99.90;;;;;;5013702;28;20186;-74
2021/01/09 04:13:05;;;;;;;12.57;8.90;;;-4.60;99.90;;;;;;5014752;28;20224;-74
2021/01/09 04:15:30;;;;;;;14.53;9.10;;;-4.60;99.90;;;;;;5014930;28;20642;-74
2021/01/09 04:17:56;;;;;;;14.30;9.23;;;-4.50;99.90;;;;;;5014760;28;20225;-74
2021/01/09 04:20:23;;;;;;;11.40;9.27;;;-4.40;99.90;;;;;;5015262;28;20182;-74
2021/01/09 04:22:48;;;;;;;13.07;8.60;;;-4.40;99.90;;;;;;5014955;28;20677;-75
2021/01/09 04:25:14;;;;;;;9.80;7.80;;;-4.30;99.90;;;;;;5014714;28;20190;-74
2021/01/09 04:27:40;;;;;;;14.20;9.33;;;-4.20;99.90;;;;;;5014510;28;20186;-75
2021/01/09 04:30:07;;;;;;;12.40;8.23;;;-4.30;99.90;;;;;;5014268;28;20590;-75
2021/01/09 04:32:33;;;;;;;11.00;8.57;;;-4.40;99.90;;;;;;5014023;28;20222;-74
2021/01/09 04:34:59;;;;;;;12.33;8.57;;;-4.40;99.90;;;;;;5013847;28;20210;-75
2021/01/09 04:37:25;;;;;;;13.40;8.70;;;-4.40;99.90;;;;;;5014122;28;20213;-74
2021/01/09 04:39:51;;;;;;;15.60;9.53;;;-4.50;99.90;;;;;;5013980;28;20182;-75
2021/01/09 04:42:17;;;;;;;9.40;7.87;;;-4.50;99.90;;;;;;5013400;28;20220;-75
2021/01/09 04:44:44;;;;;;;9.13;7.57;;;-4.60;99.90;;;;;;5007530;28;20196;-74
2021/01/09 04:47:12;;;;;;;13.60;9.03;;;-4.50;99.90;;;;;;5010151;28;20215;-75
2021/01/09 04:49:39;;;;;;;10.50;7.77;;;-4.40;99.90;;;;;;5013786;28;20226;-75
2021/01/09 04:52:06;;;;;;;10.77;7.73;;;-4.40;99.90;;;;;;5013411;28;20290;-73
2021/01/09 04:54:33;;;;;;;11.80;8.93;;;-4.30;99.90;;;;;;5013769;28;20175;-74
2021/01/09 04:56:59;;;;;;;11.77;8.97;;;-4.20;99.90;;;;;;5013854;28;20237;-75
2021/01/09 04:59:24;;;;;;;11.00;8.57;;;-4.20;99.90;;;;;;5003497;28;20182;-75
2021/01/09 05:01:52;;;;;;;13.07;9.10;;;-4.10;99.90;;;;;;4996408;28;20184;-75
2021/01/09 05:04:19;;;;;;;12.37;8.20;;;-4.10;99.90;;;;;;5011522;28;20187;-75
2021/01/09 05:06:46;;;;;;;10.67;8.37;;;-4.00;99.90;;;;;;5001412;28;20194;-74
2021/01/09 05:09:13;;;;;;;12.03;7.90;;;-4.00;99.90;;;;;;5011981;28;20290;-74
2021/01/09 05:11:41;;;;;;;11.53;8.63;;;-4.00;99.90;;;;;;5012393;28;20177;-75
2021/01/09 05:14:08;;;;;;;12.40;8.33;;;-4.00;99.90;;;;;;5012727;28;20188;-75
2021/01/09 05:16:36;;;;;;;12.60;9.20;;;-3.90;99.90;;;;;;5013541;28;20191;-74
2021/01/09 05:19:03;;;;;;;13.67;8.33;;;-3.90;99.90;;;;;;5012083;28;20273;-75
2021/01/09 05:21:34;;;;;;;12.63;8.97;;;-3.90;99.90;;;;;;5013176;28;20662;-75
2021/01/09 05:24:02;;;;;;;15.17;8.10;;;-4.00;99.90;;;;;;5013314;28;20257;-75
2021/01/09 05:26:29;;;;;;;10.27;8.80;;;-4.10;99.90;;;;;;5013312;28;20180;-75
2021/01/09 05:29:03;;;;;;;10.80;7.97;;;-4.10;99.90;;;;;;5013386;28;20212;-75
2021/01/09 05:31:36;;;;;;;12.37;8.40;;;-4.20;99.90;;;;;;5013448;28;20267;-74
2021/01/09 05:34:06;;;;;;;11.67;8.27;;;-4.30;99.90;;;;;;5013504;28;20167;-75
2021/01/09 05:36:32;;;;;;;11.60;8.07;;;-4.40;99.90;;;;;;5013101;28;20190;-75
2021/01/09 05:38:58;;;;;;;11.30;8.13;;;-4.40;99.90;;;;;;5013087;28;20210;-74
2021/01/09 05:41:25;;;;;;;11.27;8.23;;;-4.50;99.90;;;;;;5013337;28;20195;-74
2021/01/09 05:44:03;;;;;;;13.50;8.70;;;-4.60;99.90;;;;;;5014991;28;20260;-74
2021/01/09 05:46:34;;;;;;;14.67;9.40;;;-4.70;99.90;;;;;;5016756;28;20273;-76
2021/01/09 05:49:00;;;;;;;17.83;10.30;;;-4.70;99.90;;;;;;5016709;28;20683;-74
2021/01/09 05:51:31;;;;;;;21.53;11.37;;;-4.70;99.90;;;;;;5016741;28;20178;-75
2021/01/09 05:53:57;;;;;;;16.97;10.03;;;-4.70;99.90;;;;;;5016965;28;20176;-75
2021/01/09 05:56:24;;;;;;;11.90;8.07;;;-4.70;99.90;;;;;;5016991;28;20190;-74
2021/01/09 05:58:51;;;;;;;11.93;8.53;;;-4.70;99.90;;;;;;5010403;28;20184;-74
2021/01/09 06:01:27;;;;;;;10.83;7.77;;;-4.70;99.90;;;;;;5017227;28;20646;-74
2021/01/09 06:04:19;;;;;;;14.77;9.63;;;-4.60;99.90;;;;;;5016721;28;20264;-76
2021/01/09 06:06:52;;;;;;;18.10;10.83;;;-4.50;99.90;;;;;;5013803;28;20219;-75
2021/01/09 06:09:20;;;;;;;18.67;10.60;;;-4.40;99.90;;;;;;5016298;28;20205;-75
2021/01/09 06:11:47;;;;;;;14.73;9.60;;;-4.40;99.90;;;;;;5016266;28;20550;-75
2021/01/09 06:14:13;;;;;;;12.63;9.40;;;-4.40;99.90;;;;;;5015116;28;20545;-75
2021/01/09 06:16:41;;;;;;;18.70;10.37;;;-4.30;99.90;;;;;;5016289;28;20175;-75
2021/01/09 06:19:09;;;;;;;10.57;7.73;;;-4.30;99.90;;;;;;5016348;28;20273;-75
2021/01/09 06:21:36;;;;;;;10.83;8.30;;;-4.30;99.90;;;;;;5016359;28;20525;-76
2021/01/09 06:24:03;;;;;;;12.70;8.40;;;-4.40;99.90;;;;;;5016234;28;20183;-76
2021/01/09 06:26:30;;;;;;;12.27;8.70;;;-4.40;99.90;;;;;;5016120;28;20651;-75
2021/01/09 06:29:03;;;;;;;11.07;8.13;;;-4.40;99.90;;;;;;5016202;28;20602;-75
2021/01/09 06:31:29;;;;;;;10.60;8.67;;;-4.30;99.90;;;;;;5016297;28;20237;-75
2021/01/09 06:33:57;;;;;;;12.03;9.40;;;-4.30;99.90;;;;;;5014604;28;20199;-75
2021/01/09 06:36:25;;;;;;;14.90;9.80;;;-4.30;99.90;;;;;;5016034;28;20237;-75
2021/01/09 06:38:54;;;;;;;15.73;10.53;;;-4.30;99.90;;;;;;5015882;28;20638;-75
2021/01/09 06:41:21;;;;;;;13.23;9.60;;;-4.30;99.90;;;;;;5016097;28;20237;-75
2021/01/09 06:43:54;;;;;;;14.63;9.93;;;-4.30;99.90;;;;;;5005094;28;20223;-74
2021/01/09 06:46:26;;;;;;;16.27;11.40;;;-4.30;99.90;;;;;;5016114;28;20183;-75
2021/01/09 06:48:53;;;;;;;15.83;11.03;;;-4.30;99.90;;;;;;5015580;28;20265;-75
2021/01/09 06:51:52;;;;;;;13.83;9.63;;;-4.20;99.90;;;;;;5016050;28;20309;-74
2021/01/09 06:54:19;;;;;;;13.10;9.90;;;-4.20;99.90;;;;;;5003603;28;20192;-75
2021/01/09 06:56:46;;;;;;;9.90;8.33;;;-4.20;99.90;;;;;;5014315;28;20186;-75
2021/01/09 06:59:34;;;;;;;12.77;9.37;;;-4.20;99.90;;;;;;5007083;28;20184;-75
2021/01/09 07:02:28;;;;;;;10.47;8.00;;;-4.20;99.90;;;;;;5016130;28;20215;-75
2021/01/09 07:04:54;;;;;;;11.73;8.43;;;-4.20;99.90;;;;;;5015585;28;20225;-75
2021/01/09 07:07:28;;;;;;;11.27;8.83;;;-4.20;99.90;;;;;;5015771;28;20182;-75
2021/01/09 07:10:10;;;;;;;10.40;8.77;;;-4.20;99.90;;;;;;5014097;28;20696;-74
2021/01/09 07:12:36;;;;;;;12.17;9.87;;;-4.10;99.90;;;;;;5013569;28;20681;-75
2021/01/09 07:15:10;;;;;;;12.33;9.37;;;-4.20;99.90;;;;;;5014318;28;20233;-75
2021/01/09 07:17:38;;;;;;;12.10;9.20;;;-4.20;99.90;;;;;;5015167;28;20187;-75
2021/01/09 07:20:09;;;;;;;13.80;9.20;;;-4.10;99.90;;;;;;5015410;28;20267;-75
2021/01/09 07:22:41;;;;;;;12.10;9.73;;;-4.10;99.90;;;;;;5015015;28;20229;-74
2021/01/09 07:25:09;;;;;;;12.90;9.20;;;-4.10;99.90;;;;;;5013685;28;20191;-74
2021/01/09 07:27:44;;;;;;;12.17;9.47;;;-4.10;99.90;;;;;;5015008;28;20183;-74
2021/01/09 07:30:17;;;;;;;13.03;9.00;;;-4.10;99.90;;;;;;5014955;28;20180;-74
2021/01/09 07:32:54;;;;;;;12.53;9.20;;;-4.10;99.90;;;;;;5015334;28;20708;-74
2021/01/09 07:35:22;;;;;;;11.13;8.93;;;-4.00;99.90;;;;;;5015038;28;20254;-74
2021/01/09 07:37:51;;;;;;;12.07;9.03;;;-4.00;99.90;;;;;;5014979;28;20178;-74
2021/01/09 07:40:20;;;;;;;11.77;9.07;;;-4.00;99.90;;;;;;5015054;28;20262;-74
2021/01/09 07:42:47;;;;;;;10.73;8.63;;;-4.00;99.90;;;;;;5014983;28;20218;-74
2021/01/09 07:45:16;;;;;;;13.23;9.90;;;-4.00;99.90;;;;;;5014574;28;20179;-75
2021/01/09 07:47:44;;;;;;;17.63;11.20;;;-4.00;99.90;;;;;;5014639;28;20224;-75
2021/01/09 07:50:13;;;;;;;13.17;9.47;;;-4.00;99.90;;;;;;5014668;28;20654;-75
2021/01/09 07:52:39;;;;;;;14.83;10.30;;;-4.00;99.90;;;;;;5006535;28;20199;-75
2021/01/09 07:55:06;;;;;;;14.77;9.97;;;-4.00;99.90;;;;;;5014610;28;20540;-75
2021/01/09 07:57:32;;;;;;;13.33;10.07;;;-4.10;99.90;;;;;;5013084;28;20179;-75
2021/01/09 08:00:01;;;;;;;13.23;9.53;;;-4.10;99.90;;;;;;5005807;28;20192;-75
2021/01/09 08:02:30;;;;;;;10.97;9.20;;;-4.10;99.90;;;;;;5012909;28;20278;-75
2021/01/09 08:05:03;;;;;;;13.23;10.20;;;-4.10;99.90;;;;;;5007876;28;20171;-76
2021/01/09 08:07:29;;;;;;;15.07;10.43;;;-4.10;99.90;;;;;;5014024;28;20183;-74
2021/01/09 08:09:55;;;;;;;18.00;11.30;;;-4.10;99.90;;;;;;5014361;28;20207;-75
2021/01/09 08:12:28;;;;;;;17.23;10.57;;;-4.10;99.90;;;;;;5014192;28;20277;-75
2021/01/09 08:14:57;;;;;;;15.43;10.53;;;-4.10;99.90;;;;;;5014124;28;20262;-76
2021/01/09 08:17:23;;;;;;;16.93;12.20;;;-4.00;99.90;;;;;;5011466;28;20171;-75
2021/01/09 08:19:49;;;;;;;16.10;11.00;;;-4.00;99.90;;;;;;5012893;28;20251;-75
2021/01/09 08:22:15;;;;;;;19.50;11.80;;;-4.00;99.90;;;;;;5014098;28;20632;-75
2021/01/09 08:24:41;;;;;;;19.07;11.63;;;-3.90;99.90;;;;;;5013953;28;20657;-75
2021/01/09 08:27:07;;;;;;;17.60;12.47;;;-3.90;99.90;;;;;;5013929;28;20182;-75
2021/01/09 08:29:33;;;;;;;16.07;12.30;;;-3.90;99.90;;;;;;4995465;28;20200;-75
2021/01/09 08:32:00;;;;;;;15.00;12.30;;;-3.90;99.90;;;;;;4994519;28;20199;-76
2021/01/09 08:34:28;;;;;;;16.90;12.90;;;-3.90;99.90;;;;;;5003882;28;20592;-74
2021/01/09 08:36:55;;;;;;;19.50;12.27;;;-3.80;99.90;;;;;;5012512;28;20183;-75
2021/01/09 08:39:20;;;;;;;19.03;12.27;;;-3.70;99.90;;;;;;5013864;28;20179;-75
2021/01/09 08:41:47;;;;;;;17.30;11.40;;;-3.70;99.90;;;;;;5013796;28;20179;-76
2021/01/09 08:44:15;;;;;;;14.03;10.43;;;-3.60;99.90;;;;;;5012734;28;20241;-75
2021/01/09 08:46:42;;;;;;;17.23;11.83;;;-3.60;99.90;;;;;;5016056;28;20179;-75
2021/01/09 08:49:26;;;;;;;18.33;12.17;;;-3.60;99.90;;;;;;5015636;28;20229;-77
2021/01/09 08:52:05;;;;;;;17.20;11.67;;;-3.50;99.90;;;;;;5007943;28;20595;-74
2021/01/09 08:54:31;;;;;;;20.03;11.93;;;-3.40;99.90;;;;;;4988790;28;20171;-75
2021/01/09 08:57:00;;;;;;;19.80;12.97;;;-3.40;99.90;;;;;;5001205;28;20202;-75
2021/01/09 08:59:26;;;;;;;21.27;12.43;;;-3.40;99.90;;;;;;5004716;28;20202;-74
2021/01/09 09:02:06;;;;;;;20.60;13.27;;;-3.40;99.90;;;;;;5013998;28;20215;-76
2021/01/09 09:04:33;;;;;;;19.27;13.93;;;-3.30;99.90;;;;;;5013496;28;20658;-75
2021/01/09 09:07:08;;;;;;;19.30;13.17;;;-3.30;99.90;;;;;;4996808;28;20203;-74
2021/01/09 09:09:37;;;;;;;20.87;12.93;;;-3.20;99.90;;;;;;4993296;28;20564;-75
2021/01/09 09:12:03;;;;;;;23.43;14.03;;;-3.20;99.90;;;;;;4995542;28;20282;-75
2021/01/09 09:14:30;;;;;;;22.87;13.87;;;-3.10;99.90;;;;;;4995159;28;20168;-75
2021/01/09 09:17:05;;;;;;;20.33;13.60;;;-3.00;99.90;;;;;;4996186;28;20183;-75
2021/01/09 09:19:35;;;;;;;19.23;12.83;;;-2.90;99.90;;;;;;5001302;28;20230;-77
2021/01/09 09:22:04;;;;;;;19.43;13.27;;;-2.80;99.90;;;;;;4997372;28;20195;-76
2021/01/09 09:24:43;;;;;;;19.50;12.63;;;-2.70;99.90;;;;;;5000052;28;20607;-76
2021/01/09 09:27:22;;;;;;;19.60;14.33;;;-2.60;99.90;;;;;;5001347;28;20176;-76
2021/01/09 09:29:48;;;;;;;19.10;13.50;;;-2.60;99.90;;;;;;5005815;28;20211;-75
2021/01/09 09:32:26;;;;;;;20.27;14.13;;;-2.60;99.90;;;;;;5007292;28;20686;-76
2021/01/09 09:34:54;;;;;;;20.37;13.90;;;-2.50;99.90;;;;;;5010810;28;20225;-76
2021/01/09 09:37:20;;;;;;;19.83;13.87;;;-2.40;99.90;;;;;;5015852;28;20168;-75
2021/01/09 09:39:46;;;;;;;20.40;13.30;;;-2.40;99.90;;;;;;5016980;28;20191;-75
2021/01/09 09:42:12;;;;;;;21.50;13.87;;;-2.30;99.90;;;;;;5001985;28;20239;-76
2021/01/09 09:44:39;;;;;;;19.67;13.43;;;-2.30;99.90;;;;;;5028090;23;20227;-79
2021/01/09 09:47:07;;;;;;;17.90;12.73;;;-2.20;99.90;;;;;;5002660;28;20673;-78
2021/01/09 09:49:35;;;;;;;19.20;13.17;;;-2.10;99.90;;;;;;5017321;28;20199;-78
2021/01/09 09:52:15;;;;;;;21.77;14.23;;;-2.10;99.90;;;;;;5017290;28;20175;-77
2021/01/09 09:54:41;;;;;;;17.53;13.87;;;-2.00;99.90;;;;;;5016066;28;20200;-78
2021/01/09 09:57:17;;;;;;;18.23;13.60;;;-1.90;99.90;;;;;;5017678;28;20255;-78
2021/01/09 09:59:43;;;;;;;19.70;13.50;;;-1.80;99.90;;;;;;5009811;28;20178;-78
2021/01/09 10:02:08;;;;;;;20.03;14.03;;;-1.70;99.90;;;;;;5017611;28;20648;-78
2021/01/09 10:04:44;;;;;;;17.67;13.50;;;-1.60;99.90;;;;;;5018033;28;20200;-77
2021/01/09 10:07:36;;;;;;;24.33;13.90;;;-1.60;99.90;;;;;;5016857;28;20642;-78
2021/01/09 10:10:17;;;;;;;21.87;14.53;;;-1.50;99.90;;;;;;4995439;28;20578;-78
2021/01/09 10:12:56;;;;;;;22.20;15.00;;;-1.40;99.90;;;;;;5018390;28;20182;-78
2021/01/09 10:15:23;;;;;;;21.27;15.03;;;-1.40;99.90;;;;;;5018562;28;20203;-78
2021/01/09 10:17:53;;;;;;;18.87;14.13;;;-1.40;99.90;;;;;;5016966;28;20187;-78
2021/01/09 10:20:19;;;;;;;17.87;13.97;;;-1.30;99.90;;;;;;5017729;28;20194;-78
2021/01/09 10:22:45;;;;;;;17.90;14.33;;;-1.30;99.90;;;;;;5017187;28;20181;-78
2021/01/09 10:25:11;;;;;;;21.37;14.50;;;-1.20;99.90;;;;;;5018023;28;20239;-78
2021/01/09 10:27:37;;;;;;;19.23;13.73;;;-1.10;99.90;;;;;;5017921;28;20181;-78
2021/01/09 10:30:04;;;;;;;21.00;14.23;;;-1.10;99.90;;;;;;5016418;28;20557;-78
2021/01/09 10:32:30;;;;;;;19.87;14.17;;;-1.10;99.90;;;;;;5017049;28;20207;-78
2021/01/09 10:34:56;;;;;;;18.23;13.63;;;-1.00;99.90;;;;;;5016789;28;20197;-78
2021/01/09 10:37:22;;;;;;;20.93;14.23;;;-0.90;99.90;;;;;;5017117;28;20246;-78
2021/01/09 10:39:48;;;;;;;19.40;14.23;;;-0.90;99.90;;;;;;5017528;28;20222;-78
2021/01/09 10:42:14;;;;;;;20.57;14.73;;;-0.90;99.90;;;;;;5016959;28;20186;-78
2021/01/09 10:44:40;;;;;;;20.87;15.23;;;-0.90;99.90;;;;;;5008633;28;20260;-78
2021/01/09 10:47:06;;;;;;;22.87;14.67;;;-0.80;99.90;;;;;;5014834;28;20254;-78
2021/01/09 10:49:31;;;;;;;23.30;14.93;;;-0.70;99.90;;;;;;5014795;28;20201;-78
2021/01/09 10:51:57;;;;;;;27.10;15.03;;;-0.60;99.90;;;;;;5016065;28;20182;-78
2021/01/09 10:54:23;;;;;;;19.07;14.67;;;-0.40;99.90;;;;;;5015620;28;20282;-77
2021/01/09 10:56:48;;;;;;;21.83;15.30;;;-0.30;99.90;;;;;;5016084;28;20181;-78
2021/01/09 10:59:14;;;;;;;20.73;14.80;;;-0.30;99.90;;;;;;5007342;28;20229;-78
2021/01/09 11:01:40;;;;;;;20.80;15.10;;;-0.30;99.90;;;;;;5015720;28;20187;-78
2021/01/09 11:04:06;;;;;;;22.77;15.27;;;-0.20;99.90;;;;;;5015643;28;20214;-77
2021/01/09 11:06:31;;;;;;;23.50;16.00;;;-0.10;99.90;;;;;;5014322;28;20210;-78
2021/01/09 11:08:57;;;;;;;22.23;15.27;;;-0.10;99.90;;;;;;5015423;28;20195;-78
2021/01/09 11:11:23;;;;;;;22.53;14.93;;;0.00;99.90;;;;;;5015265;28;20257;-77
2021/01/09 11:13:49;;;;;;;21.07;15.30;;;0.10;99.90;;;;;;5015645;28;20209;-79
2021/01/09 11:16:22;;;;;;;20.27;15.00;;;0.20;99.90;;;;;;5015720;28;20183;-78
2021/01/09 11:18:48;;;;;;;21.23;15.20;;;0.10;99.90;;;;;;5014790;28;20608;-77
2021/01/09 11:21:15;;;;;;;20.93;15.30;;;0.20;99.90;;;;;;5015954;28;20270;-78
2021/01/09 11:23:44;;;;;;;22.23;15.67;;;0.20;99.90;;;;;;5015113;28;20602;-78
2021/01/09 11:26:21;;;;;;;20.83;15.13;;;0.30;99.90;;;;;;5015340;28;20207;-77
2021/01/09 11:28:46;;;;;;;22.13;15.47;;;0.40;99.90;;;;;;5013195;28;20287;-77
2021/01/09 11:31:12;;;;;;;21.70;15.00;;;0.40;99.90;;;;;;5013825;28;20277;-77
2021/01/09 11:33:40;;;;;;;33.33;18.70;;;0.50;99.90;;;;;;5015298;28;20191;-77
2021/01/09 11:36:09;;;;;;;24.40;15.90;;;0.50;99.90;;;;;;5015660;28;20232;-77
2021/01/09 11:38:34;;;;;;;19.20;14.73;;;0.50;99.90;;;;;;5014995;28;20182;-77
2021/01/09 11:41:00;;;;;;;20.73;15.03;;;0.50;99.90;;;;;;5014004;28;20533;-77
2021/01/09 11:43:25;;;;;;;21.27;15.40;;;0.60;99.90;;;;;;5014920;28;20223;-77
2021/01/09 11:45:51;;;;;;;19.10;15.03;;;0.60;99.90;;;;;;5014672;28;20194;-77
2021/01/09 11:48:17;;;;;;;22.70;16.17;;;0.60;99.90;;;;;;5013777;28;20199;-77
2021/01/09 11:50:43;;;;;;;21.83;16.27;;;0.70;99.90;;;;;;5014969;28;20703;-78
2021/01/09 11:53:09;;;;;;;23.47;15.43;;;0.70;99.90;;;;;;5015038;28;20187;-77
2021/01/09 11:55:35;;;;;;;18.97;15.03;;;0.80;99.90;;;;;;5014830;28;20182;-77
2021/01/09 11:58:00;;;;;;;22.63;16.10;;;0.80;99.90;;;;;;5007088;28;20266;-77
2021/01/09 12:00:26;;;;;;;18.87;14.77;;;0.90;99.90;;;;;;5009072;28;20178;-78
2021/01/09 12:02:52;;;;;;;40.30;21.30;;;1.00;99.90;;;;;;5014630;28;20254;-78
2021/01/09 12:05:17;;;;;;;21.47;16.00;;;1.00;99.90;;;;;;5014748;28;20266;-78
2021/01/09 12:07:43;;;;;;;20.30;15.70;;;1.00;99.90;;;;;;5014726;28;20167;-78
2021/01/09 12:10:10;;;;;;;31.07;18.73;;;1.00;99.90;;;;;;5015081;28;20245;-78
2021/01/09 12:12:36;;;;;;;19.30;15.13;;;1.00;99.90;;;;;;5014749;28;20254;-77
2021/01/09 12:15:06;;;;;;;20.80;14.23;;;1.00;99.90;;;;;;5014772;28;20195;-78
2021/01/09 12:17:35;;;;;;;21.80;15.53;;;1.00;99.90;;;;;;5011762;28;20175;-78
2021/01/09 12:20:03;;;;;;;18.43;14.53;;;1.00;99.90;;;;;;5014827;28;20202;-77
2021/01/09 12:22:29;;;;;;;20.07;14.87;;;0.90;99.90;;;;;;5014660;28;20280;-77
2021/01/09 12:24:55;;;;;;;17.87;14.20;;;0.90;99.90;;;;;;5014348;28;20759;-78
2021/01/09 12:27:23;;;;;;;18.03;14.73;;;0.90;99.90;;;;;;5014485;28;20522;-78
2021/01/09 12:29:49;;;;;;;18.97;14.97;;;0.90;99.90;;;;;;5014289;28;20211;-77
2021/01/09 12:32:15;;;;;;;24.00;14.43;;;0.90;99.90;;;;;;5014002;28;20183;-77
2021/01/09 12:34:40;;;;;;;15.70;13.43;;;1.00;99.90;;;;;;5012807;28;20194;-77
2021/01/09 12:37:07;;;;;;;26.23;15.83;;;0.90;99.90;;;;;;5012732;28;20171;-77
2021/01/09 12:39:32;;;;;;;19.90;15.17;;;0.80;99.90;;;;;;5012756;28;20271;-77